createdAt,value
2017-10-21T00:00:22.902Z,74015.68
2017-10-21T00:01:22.926Z,74013.30
2017-10-21T00:02:22.951Z,74016.44
2017-10-21T00:03:28.534Z,74013.28
2017-10-21T00:04:22.999Z,74019.08
2017-10-21T00:05:26.031Z,74017.73
2017-10-21T00:06:23.054Z,74018.50
2017-10-21T00:07:23.074Z,74018.94
2017-10-21T00:08:23.097Z,74020.01
2017-10-21T00:09:23.122Z,74016.20
2017-10-21T00:10:23.146Z,74015.59
2017-10-21T00:11:26.177Z,74015.60
2017-10-21T00:12:23.196Z,74018.96
2017-10-21T00:13:23.221Z,74013.18
2017-10-21T00:14:23.246Z,74019.48
2017-10-21T00:15:23.272Z,74012.09
2017-10-21T00:16:23.295Z,74010.41
2017-10-21T00:17:26.326Z,74010.66
2017-10-21T00:18:23.345Z,74009.27
2017-10-21T00:19:23.369Z,74009.42
2017-10-21T00:20:23.394Z,74011.17
2017-10-21T00:21:23.419Z,74013.02
2017-10-21T00:22:23.442Z,74012.34
2017-10-21T00:23:26.575Z,74008.24
2017-10-21T00:24:23.494Z,74004.20
2017-10-21T00:25:23.518Z,74007.37
2017-10-21T00:26:23.542Z,74008.45
2017-10-21T00:27:23.568Z,74008.32
2017-10-21T00:28:29.602Z,74010.38
2017-10-21T00:29:23.617Z,74011.36
2017-10-21T00:30:23.641Z,74010.38
2017-10-21T00:31:23.666Z,74009.80
2017-10-21T00:32:23.694Z,74008.02
2017-10-21T00:33:29.575Z,74007.58
2017-10-21T00:34:23.740Z,74008.89
2017-10-21T00:35:23.766Z,74006.13
2017-10-21T00:36:23.794Z,74003.33
2017-10-21T00:37:23.816Z,74006.89
2017-10-21T00:38:23.840Z,74005.12
2017-10-21T00:39:29.580Z,74002.09
2017-10-21T00:40:23.889Z,74005.13
2017-10-21T00:41:23.914Z,74007.52
2017-10-21T00:42:23.940Z,74002.30
2017-10-21T00:43:23.965Z,73999.98
2017-10-21T00:44:23.989Z,74004.55
2017-10-21T00:45:27.019Z,74005.59
2017-10-21T00:46:24.039Z,74006.33
2017-10-21T00:47:24.063Z,74002.84
2017-10-21T00:48:24.089Z,74002.64
2017-10-21T00:49:24.114Z,74002.43
2017-10-21T00:50:24.138Z,74002.84
2017-10-21T00:51:27.269Z,74001.22
2017-10-21T00:52:24.190Z,74002.27
2017-10-21T00:53:24.213Z,74002.48
2017-10-21T00:54:24.238Z,73999.43
2017-10-21T00:55:24.262Z,74002.45
2017-10-21T00:56:24.287Z,74000.37
2017-10-21T00:57:29.621Z,74002.12
2017-10-21T00:58:24.337Z,73997.59
2017-10-21T00:59:24.363Z,73995.96
2017-10-21T01:00:29.594Z,73995.12
2017-10-21T01:01:24.411Z,73994.11
2017-10-21T01:02:24.439Z,73994.71
2017-10-21T01:03:24.461Z,73994.34
2017-10-21T01:04:24.487Z,73993.55
2017-10-21T01:05:24.510Z,73997.20
2017-10-21T01:06:24.537Z,73997.65
2017-10-21T01:07:24.561Z,73999.95
2017-10-21T01:08:24.586Z,74001.67
2017-10-21T01:09:29.619Z,73998.24
2017-10-21T01:10:24.635Z,74001.56
2017-10-21T01:11:30.620Z,73999.70
2017-10-21T01:12:27.690Z,74001.86
2017-10-21T01:13:24.709Z,73999.78
2017-10-21T01:14:24.737Z,74001.19
2017-10-21T01:15:24.759Z,74003.39
2017-10-21T01:16:24.783Z,74002.90
2017-10-21T01:17:24.809Z,74000.52
2017-10-21T01:18:27.972Z,74001.47
2017-10-21T01:19:24.859Z,74002.14
2017-10-21T01:20:24.882Z,74004.02
2017-10-21T01:21:24.907Z,74005.16
2017-10-21T01:22:24.932Z,74004.73
2017-10-21T01:23:24.958Z,74005.06
2017-10-21T01:24:30.642Z,74004.84
2017-10-21T01:25:25.008Z,74005.46
2017-10-21T01:26:25.033Z,74003.41
2017-10-21T01:27:25.058Z,74005.06
2017-10-21T01:28:25.082Z,74005.16
2017-10-21T01:29:25.106Z,74002.54
2017-10-21T01:30:28.237Z,73999.44
2017-10-21T01:31:25.157Z,73999.76
2017-10-21T01:32:25.181Z,74001.19
2017-10-21T01:33:25.206Z,73998.75
2017-10-21T01:34:25.231Z,73991.60
2017-10-21T01:35:25.257Z,73990.89
2017-10-21T01:36:30.639Z,73985.26
2017-10-21T01:37:25.321Z,73992.48
2017-10-21T01:38:25.331Z,73987.41
2017-10-21T01:39:25.356Z,73991.83
2017-10-21T01:40:25.380Z,73984.98
2017-10-21T01:41:30.670Z,73988.95
2017-10-21T01:42:25.430Z,73988.58
2017-10-21T01:43:25.454Z,73980.21
2017-10-21T01:44:25.489Z,73981.87
2017-10-21T01:45:25.509Z,73982.40
2017-10-21T01:46:28.635Z,73984.54
2017-10-21T01:47:25.555Z,73985.77
2017-10-21T01:48:25.579Z,73987.83
2017-10-21T01:49:25.604Z,73988.43
2017-10-21T01:50:25.629Z,73986.48
2017-10-21T01:51:25.654Z,73986.84
2017-10-21T01:52:28.684Z,73986.18
2017-10-21T01:53:25.704Z,73986.55
2017-10-21T01:54:25.728Z,73986.43
2017-10-21T01:55:25.752Z,73983.63
2017-10-21T01:56:25.778Z,73984.02
2017-10-21T01:57:25.802Z,73986.18
2017-10-21T01:58:31.687Z,73987.63
2017-10-21T01:59:25.853Z,73986.11
2017-10-21T02:00:25.876Z,73981.24
2017-10-21T02:01:25.902Z,73985.21
2017-10-21T02:02:25.928Z,73986.23
2017-10-21T02:03:28.956Z,73990.24
2017-10-21T02:04:25.976Z,73991.48
2017-10-21T02:05:26.001Z,73987.55
2017-10-21T02:06:26.026Z,73987.16
2017-10-21T02:07:26.051Z,73989.89
2017-10-21T02:08:26.076Z,73987.95
2017-10-21T02:09:29.105Z,73987.18
2017-10-21T02:10:26.124Z,73984.91
2017-10-21T02:11:26.150Z,73982.32
2017-10-21T02:12:26.174Z,73985.38
2017-10-21T02:13:26.199Z,73981.59
2017-10-21T02:14:26.224Z,73984.93
2017-10-21T02:15:31.708Z,73984.47
2017-10-21T02:16:26.272Z,73986.48
2017-10-21T02:17:26.297Z,73985.09
2017-10-21T02:18:26.326Z,73984.07
2017-10-21T02:19:26.350Z,73985.12
2017-10-21T02:20:31.730Z,73982.61
2017-10-21T02:21:26.398Z,73983.05
2017-10-21T02:22:26.422Z,73983.82
2017-10-21T02:23:26.446Z,73983.87
2017-10-21T02:24:26.471Z,73982.25
2017-10-21T02:25:31.704Z,73978.43
2017-10-21T02:26:26.520Z,73976.84
2017-10-21T02:27:26.546Z,73977.98
2017-10-21T02:28:26.570Z,73980.16
2017-10-21T02:29:26.594Z,73980.00
2017-10-21T02:30:31.729Z,73982.31
2017-10-21T02:31:26.646Z,73983.08
2017-10-21T02:32:26.668Z,73982.31
2017-10-21T02:33:26.704Z,73980.40
2017-10-21T02:34:26.726Z,73982.30
2017-10-21T02:35:32.704Z,73982.27
2017-10-21T02:36:32.678Z,73982.75
2017-10-21T02:37:26.793Z,73984.05
2017-10-21T02:38:26.818Z,73985.10
2017-10-21T02:39:32.703Z,73984.98
2017-10-21T02:40:26.871Z,73987.11
2017-10-21T02:41:30.003Z,73986.15
2017-10-21T02:42:26.916Z,73981.11
2017-10-21T02:43:26.941Z,73979.45
2017-10-21T02:44:26.965Z,73982.18
2017-10-21T02:45:26.990Z,73979.13
2017-10-21T02:46:27.015Z,73986.06
2017-10-21T02:47:32.700Z,73981.80
2017-10-21T02:48:27.064Z,73985.38
2017-10-21T02:49:27.088Z,73989.02
2017-10-21T02:50:27.113Z,73983.34
2017-10-21T02:51:27.138Z,73980.45
2017-10-21T02:52:32.721Z,73981.24
2017-10-21T02:53:27.188Z,73981.16
2017-10-21T02:54:27.219Z,73987.18
2017-10-21T02:55:27.237Z,73978.91
2017-10-21T02:56:27.278Z,73979.93
2017-10-21T02:57:32.744Z,73977.53
2017-10-21T02:58:27.311Z,73980.38
2017-10-21T02:59:32.744Z,73977.19
2017-10-21T03:00:27.359Z,73975.45
2017-10-21T03:01:27.383Z,73976.95
2017-10-21T03:02:27.407Z,73979.81
2017-10-21T03:03:30.438Z,73977.12
2017-10-21T03:04:27.456Z,73972.49
2017-10-21T03:05:27.481Z,73970.34
2017-10-21T03:06:27.506Z,73976.99
2017-10-21T03:07:27.530Z,73964.36
2017-10-21T03:08:27.557Z,73965.03
2017-10-21T03:09:27.579Z,73967.39
2017-10-21T03:10:27.605Z,73974.80
2017-10-21T03:11:27.629Z,73970.50
2017-10-21T03:12:27.653Z,73973.83
2017-10-21T03:13:27.679Z,73966.86
2017-10-21T03:14:32.744Z,73969.45
2017-10-21T03:15:27.726Z,73963.98
2017-10-21T03:16:27.750Z,73969.54
2017-10-21T03:17:27.778Z,73967.17
2017-10-21T03:18:27.799Z,73973.05
2017-10-21T03:19:33.735Z,73969.80
2017-10-21T03:20:27.852Z,73972.15
2017-10-21T03:21:27.871Z,73982.80
2017-10-21T03:22:27.897Z,73973.09
2017-10-21T03:23:27.921Z,73975.19
2017-10-21T03:24:33.755Z,73963.41
2017-10-21T03:25:27.969Z,73969.45
2017-10-21T03:26:27.993Z,73968.61
2017-10-21T03:27:33.778Z,73964.95
2017-10-21T03:28:28.042Z,73973.30
2017-10-21T03:29:33.776Z,73973.32
2017-10-21T03:30:28.092Z,73962.15
2017-10-21T03:31:28.115Z,73965.09
2017-10-21T03:32:28.157Z,73973.38
2017-10-21T03:33:28.163Z,73969.79
2017-10-21T03:34:28.189Z,73966.31
2017-10-21T03:35:31.220Z,73962.41
2017-10-21T03:36:28.236Z,73962.34
2017-10-21T03:37:28.261Z,73961.82
2017-10-21T03:38:28.288Z,73958.85
2017-10-21T03:39:28.310Z,73964.36
2017-10-21T03:40:28.335Z,73964.77
2017-10-21T03:41:33.767Z,73971.48
2017-10-21T03:42:28.382Z,73970.53
2017-10-21T03:43:28.408Z,73968.09
2017-10-21T03:44:28.432Z,73968.41
2017-10-21T03:45:28.458Z,73962.76
2017-10-21T03:46:28.480Z,73956.61
2017-10-21T03:47:28.505Z,73962.24
2017-10-21T03:48:28.529Z,73957.03
2017-10-21T03:49:28.553Z,73955.62
2017-10-21T03:50:28.577Z,73955.02
2017-10-21T03:51:28.603Z,73959.53
2017-10-21T03:52:33.785Z,73956.78
2017-10-21T03:53:28.651Z,73965.24
2017-10-21T03:54:28.675Z,73960.58
2017-10-21T03:55:28.700Z,73963.08
2017-10-21T03:56:28.723Z,73964.63
2017-10-21T03:57:33.808Z,73963.33
2017-10-21T03:58:28.772Z,73963.67
2017-10-21T03:59:31.803Z,73965.31
2017-10-21T04:00:28.821Z,73958.51
2017-10-21T04:01:28.847Z,73959.00
2017-10-21T04:02:28.871Z,73961.05
2017-10-21T04:03:28.896Z,73964.56
2017-10-21T04:04:32.025Z,73965.71
2017-10-21T04:05:28.944Z,73965.89
2017-10-21T04:06:28.970Z,73966.76
2017-10-21T04:07:28.994Z,73959.33
2017-10-21T04:08:29.017Z,73963.77
2017-10-21T04:09:29.043Z,73962.91
2017-10-21T04:10:32.073Z,73962.29
2017-10-21T04:11:29.092Z,73968.05
2017-10-21T04:12:29.116Z,73968.24
2017-10-21T04:13:29.142Z,73970.91
2017-10-21T04:14:29.165Z,73969.91
2017-10-21T04:15:29.191Z,73969.94
2017-10-21T04:16:29.318Z,73972.34
2017-10-21T04:17:29.241Z,73969.16
2017-10-21T04:18:29.265Z,73960.19
2017-10-21T04:19:29.295Z,73970.27
2017-10-21T04:20:29.313Z,73965.09
2017-10-21T04:21:29.338Z,73964.87
2017-10-21T04:22:35.824Z,73962.54
2017-10-21T04:23:29.389Z,73959.10
2017-10-21T04:24:29.414Z,73962.91
2017-10-21T04:25:29.437Z,73962.25
2017-10-21T04:26:29.463Z,73954.10
2017-10-21T04:27:32.594Z,73959.45
2017-10-21T04:28:29.514Z,73959.22
2017-10-21T04:29:29.537Z,73961.88
2017-10-21T04:30:29.562Z,73960.98
2017-10-21T04:31:29.588Z,73959.94
2017-10-21T04:32:29.611Z,73958.66
2017-10-21T04:33:34.846Z,73963.39
2017-10-21T04:34:29.662Z,73957.20
2017-10-21T04:35:29.686Z,73960.59
2017-10-21T04:36:34.819Z,73961.49
2017-10-21T04:37:29.735Z,73960.93
2017-10-21T04:38:29.760Z,73961.50
2017-10-21T04:39:29.785Z,73963.84
2017-10-21T04:40:29.811Z,73962.94
2017-10-21T04:41:32.947Z,73967.09
2017-10-21T04:42:29.861Z,73962.58
2017-10-21T04:43:29.885Z,73960.59
2017-10-21T04:44:29.915Z,73968.66
2017-10-21T04:45:29.934Z,73961.27
2017-10-21T04:46:29.960Z,73964.73
2017-10-21T04:47:35.845Z,73962.81
2017-10-21T04:48:30.015Z,73963.64
2017-10-21T04:49:30.034Z,73961.41
2017-10-21T04:50:30.059Z,73956.54
2017-10-21T04:51:30.084Z,73958.38
2017-10-21T04:52:33.113Z,73952.16
2017-10-21T04:53:30.133Z,73958.38
2017-10-21T04:54:30.159Z,73957.20
2017-10-21T04:55:30.184Z,73953.58
2017-10-21T04:56:30.207Z,73956.87
2017-10-21T04:57:30.233Z,73953.18
2017-10-21T04:58:35.867Z,73952.40
2017-10-21T04:59:33.289Z,73957.35
2017-10-21T05:00:30.307Z,73955.40
2017-10-21T05:01:30.332Z,73958.82
2017-10-21T05:02:30.358Z,73957.75
2017-10-21T05:03:30.383Z,73952.63
2017-10-21T05:04:30.405Z,73955.72
2017-10-21T05:05:35.891Z,73950.84
2017-10-21T05:06:30.457Z,73952.93
2017-10-21T05:07:30.482Z,73952.12
2017-10-21T05:08:30.506Z,73959.08
2017-10-21T05:09:30.531Z,73951.65
2017-10-21T05:10:35.865Z,73954.77
2017-10-21T05:11:30.582Z,73957.90
2017-10-21T05:12:30.604Z,73959.61
2017-10-21T05:13:30.631Z,73958.74
2017-10-21T05:14:35.864Z,73955.09
2017-10-21T05:15:30.680Z,73962.28
2017-10-21T05:16:30.704Z,73965.48
2017-10-21T05:17:35.889Z,73960.85
2017-10-21T05:18:30.754Z,73962.88
2017-10-21T05:19:30.780Z,73964.22
2017-10-21T05:20:30.803Z,73960.73
2017-10-21T05:21:30.829Z,73968.70
2017-10-21T05:22:35.913Z,73962.77
2017-10-21T05:23:35.887Z,73961.83
2017-10-21T05:24:30.918Z,73964.80
2017-10-21T05:25:30.928Z,73968.09
2017-10-21T05:26:30.957Z,73963.10
2017-10-21T05:27:30.979Z,73962.52
2017-10-21T05:28:36.912Z,73960.44
2017-10-21T05:29:31.030Z,73964.00
2017-10-21T05:30:31.054Z,73965.98
2017-10-21T05:31:31.079Z,73967.95
2017-10-21T05:32:36.912Z,73953.45
2017-10-21T05:33:36.886Z,73970.42
2017-10-21T05:34:31.152Z,73958.89
2017-10-21T05:35:31.179Z,73964.20
2017-10-21T05:36:31.301Z,73960.34
2017-10-21T05:37:31.226Z,73957.73
2017-10-21T05:38:31.253Z,73963.55
2017-10-21T05:39:31.278Z,73966.52
2017-10-21T05:40:31.301Z,73971.70
2017-10-21T05:41:31.326Z,73962.06
2017-10-21T05:43:36.936Z,73945.72
2017-10-21T05:44:31.400Z,73963.52
2017-10-21T05:45:31.426Z,73949.27
2017-10-21T05:46:31.451Z,73957.88
2017-10-21T05:47:36.934Z,73958.19
2017-10-21T05:48:31.499Z,73956.34
2017-10-21T05:49:31.525Z,73961.63
2017-10-21T05:50:31.657Z,73962.89
2017-10-21T05:51:31.575Z,73963.19
2017-10-21T05:52:31.600Z,73965.84
2017-10-21T05:53:31.624Z,73959.89
2017-10-21T05:54:31.650Z,73966.09
2017-10-21T05:55:31.674Z,73964.27
2017-10-21T05:56:36.908Z,73967.27
2017-10-21T05:57:31.724Z,73966.73
2017-10-21T05:58:31.748Z,73969.26
2017-10-21T05:59:31.774Z,73972.43
2017-10-21T06:00:31.799Z,73970.66
2017-10-21T06:01:31.823Z,73966.10
2017-10-21T06:02:31.848Z,73976.23
2017-10-21T06:03:36.932Z,73975.05
2017-10-21T06:04:31.897Z,73972.75
2017-10-21T06:05:31.923Z,73967.51
2017-10-21T06:06:31.947Z,73972.15
2017-10-21T06:07:31.972Z,73971.66
2017-10-21T06:08:32.098Z,73971.88
2017-10-21T06:09:32.023Z,73971.44
2017-10-21T06:10:32.048Z,73973.94
2017-10-21T06:11:32.072Z,73973.87
2017-10-21T06:12:32.097Z,73972.16
2017-10-21T06:13:32.123Z,73976.97
2017-10-21T06:14:35.254Z,73971.07
2017-10-21T06:15:32.177Z,73973.13
2017-10-21T06:16:32.206Z,73976.64
2017-10-21T06:17:32.225Z,73975.84
2017-10-21T06:18:32.248Z,73977.32
2017-10-21T06:19:32.273Z,73972.00
2017-10-21T06:20:32.296Z,73976.27
2017-10-21T06:21:32.322Z,73981.85
2017-10-21T06:22:32.347Z,73981.09
2017-10-21T06:23:32.373Z,73969.39
2017-10-21T06:24:32.398Z,73976.92
2017-10-21T06:25:32.423Z,73982.74
2017-10-21T06:26:37.957Z,73982.88
2017-10-21T06:27:32.473Z,73983.09
2017-10-21T06:28:32.498Z,73988.02
2017-10-21T06:29:32.522Z,73993.09
2017-10-21T06:30:32.549Z,73985.50
2017-10-21T06:31:35.682Z,73987.12
2017-10-21T06:32:32.598Z,73978.87
2017-10-21T06:33:32.624Z,73992.91
2017-10-21T06:34:32.649Z,74000.09
2017-10-21T06:35:32.674Z,73995.54
2017-10-21T06:36:32.717Z,73987.66
2017-10-21T06:37:37.983Z,73987.96
2017-10-21T06:38:37.961Z,73997.64
2017-10-21T06:39:32.775Z,73998.30
2017-10-21T06:40:32.799Z,73997.38
2017-10-21T06:41:32.828Z,74002.26
2017-10-21T06:42:32.851Z,73997.20
2017-10-21T06:43:37.983Z,73999.07
2017-10-21T06:44:32.899Z,73991.56
2017-10-21T06:45:37.990Z,73999.77
2017-10-21T06:46:32.951Z,73997.17
2017-10-21T06:47:37.985Z,73998.43
2017-10-21T06:48:33.000Z,73996.20
2017-10-21T06:49:33.032Z,73986.54
2017-10-21T06:50:36.056Z,73996.95
2017-10-21T06:51:33.078Z,73994.80
2017-10-21T06:52:33.102Z,73990.10
2017-10-21T06:53:33.126Z,73993.38
2017-10-21T06:54:33.152Z,74003.17
2017-10-21T06:55:33.178Z,74001.63
2017-10-21T06:56:36.207Z,73993.34
2017-10-21T06:57:33.228Z,73996.88
2017-10-21T06:58:33.253Z,74001.64
2017-10-21T06:59:33.279Z,74009.39
2017-10-21T07:00:33.302Z,74009.25
2017-10-21T07:01:33.329Z,74007.52
2017-10-21T07:02:33.354Z,74003.50
2017-10-21T07:03:33.384Z,74005.83
2017-10-21T07:04:33.406Z,74004.22
2017-10-21T07:05:33.431Z,74007.92
2017-10-21T07:06:33.455Z,74007.62
2017-10-21T07:07:33.488Z,74009.55
2017-10-21T07:08:39.015Z,74011.99
2017-10-21T07:09:33.535Z,74004.65
2017-10-21T07:10:33.559Z,74013.84
2017-10-21T07:11:33.586Z,74003.48
2017-10-21T07:12:33.608Z,74017.11
2017-10-21T07:13:33.634Z,74009.96
2017-10-21T07:14:36.665Z,74007.95
2017-10-21T07:15:33.693Z,74004.46
2017-10-21T07:16:33.711Z,73999.70
2017-10-21T07:17:33.736Z,73997.97
2017-10-21T07:18:33.764Z,74005.50
2017-10-21T07:19:33.788Z,74001.16
2017-10-21T07:20:33.814Z,74002.27
2017-10-21T07:21:33.840Z,73995.56
2017-10-21T07:22:33.871Z,74000.62
2017-10-21T07:23:33.892Z,73996.06
2017-10-21T07:24:33.918Z,73995.48
2017-10-21T07:25:33.944Z,74003.87
2017-10-21T07:26:39.028Z,74003.43
2017-10-21T07:27:33.995Z,74002.09
2017-10-21T07:28:40.031Z,73997.97
2017-10-21T07:29:34.046Z,73996.38
2017-10-21T07:30:34.073Z,74002.78
2017-10-21T07:31:34.098Z,74004.86
2017-10-21T07:32:34.125Z,74005.81
2017-10-21T07:33:40.010Z,74007.52
2017-10-21T07:34:34.177Z,74012.52
2017-10-21T07:35:34.203Z,74005.57
2017-10-21T07:36:34.229Z,74012.59
2017-10-21T07:37:34.255Z,74011.03
2017-10-21T07:38:34.382Z,74013.50
2017-10-21T07:39:34.309Z,74013.61
2017-10-21T07:40:34.333Z,74014.07
2017-10-21T07:41:34.361Z,74018.35
2017-10-21T07:42:34.387Z,74013.55
2017-10-21T07:43:34.414Z,74007.37
2017-10-21T07:44:34.448Z,74011.41
2017-10-21T07:45:34.466Z,74013.04
2017-10-21T07:46:34.493Z,74012.60
2017-10-21T07:47:34.519Z,74015.10
2017-10-21T07:48:34.545Z,74018.41
2017-10-21T07:49:34.571Z,74015.33
2017-10-21T07:50:40.058Z,74018.66
2017-10-21T07:51:34.624Z,74008.44
2017-10-21T07:52:40.059Z,74018.71
2017-10-21T07:53:34.677Z,74024.79
2017-10-21T07:54:34.704Z,74029.96
2017-10-21T07:55:34.731Z,74024.08
2017-10-21T07:56:34.757Z,74017.05
2017-10-21T07:57:37.787Z,74025.88
2017-10-21T07:58:34.809Z,74028.62
2017-10-21T07:59:34.836Z,74026.50
2017-10-21T08:00:34.863Z,74020.43
2017-10-21T08:01:34.890Z,74021.70
2017-10-21T08:02:34.916Z,74023.41
2017-10-21T08:03:40.052Z,74027.07
2017-10-21T08:04:40.029Z,74027.64
2017-10-21T08:05:34.997Z,74032.08
2017-10-21T08:06:35.038Z,74028.24
2017-10-21T08:07:35.051Z,74034.28
2017-10-21T08:08:35.084Z,74033.53
2017-10-21T08:09:35.104Z,74030.52
2017-10-21T08:10:35.132Z,74027.98
2017-10-21T08:11:41.068Z,74032.39
2017-10-21T08:12:35.185Z,74033.27
2017-10-21T08:13:35.219Z,74039.99
2017-10-21T08:14:41.049Z,74032.20
2017-10-21T08:15:35.266Z,74033.30
2017-10-21T08:16:35.293Z,74031.41
2017-10-21T08:17:35.320Z,74030.13
2017-10-21T08:18:35.350Z,74023.77
2017-10-21T08:19:41.086Z,74032.62
2017-10-21T08:20:35.403Z,74024.95
2017-10-21T08:21:35.431Z,74019.57
2017-10-21T08:22:35.457Z,74027.03
2017-10-21T08:23:41.096Z,74024.94
2017-10-21T08:24:35.512Z,74020.99
2017-10-21T08:25:35.541Z,74027.34
2017-10-21T08:26:35.572Z,74037.88
2017-10-21T08:27:35.599Z,74030.47
2017-10-21T08:28:41.082Z,74037.20
2017-10-21T08:29:35.652Z,74031.52
2017-10-21T08:30:35.680Z,74037.51
2017-10-21T08:31:35.708Z,74037.73
2017-10-21T08:32:35.758Z,74035.73
2017-10-21T08:33:35.763Z,74034.35
2017-10-21T08:34:41.100Z,74034.95
2017-10-21T08:35:35.821Z,74032.80
2017-10-21T08:36:35.848Z,74027.16
2017-10-21T08:37:35.877Z,74045.97
2017-10-21T08:38:35.904Z,74025.93
2017-10-21T08:39:35.932Z,74037.60
2017-10-21T08:40:41.070Z,74040.05
2017-10-21T08:41:35.990Z,74033.03
2017-10-21T08:42:41.078Z,74037.45
2017-10-21T08:43:36.048Z,74037.21
2017-10-21T08:44:36.076Z,74039.21
2017-10-21T08:45:36.104Z,74038.91
2017-10-21T08:46:36.139Z,74052.09
2017-10-21T08:47:36.163Z,74046.41
2017-10-21T08:48:39.304Z,74045.84
2017-10-21T08:49:36.225Z,74042.25
2017-10-21T08:50:36.251Z,74040.52
2017-10-21T08:51:36.280Z,74036.66
2017-10-21T08:52:36.310Z,74043.34
2017-10-21T08:53:36.340Z,74040.01
2017-10-21T08:54:39.476Z,74033.50
2017-10-21T08:55:36.421Z,74038.50
2017-10-21T08:56:36.429Z,74039.23
2017-10-21T08:57:36.459Z,74045.91
2017-10-21T08:58:36.489Z,74050.23
2017-10-21T08:59:36.521Z,74052.91
2017-10-21T09:00:36.650Z,74054.32
2017-10-21T09:01:36.581Z,74051.84
2017-10-21T09:02:36.612Z,74050.02
2017-10-21T09:03:36.642Z,74056.66
2017-10-21T09:04:36.674Z,74051.92
2017-10-21T09:05:36.704Z,74062.15
2017-10-21T09:06:39.841Z,74051.38
2017-10-21T09:07:36.766Z,74057.43
2017-10-21T09:08:36.797Z,74058.41
2017-10-21T09:09:36.828Z,74057.61
2017-10-21T09:10:36.860Z,74054.01
2017-10-21T09:11:36.891Z,74053.58
2017-10-21T09:12:40.043Z,74059.95
2017-10-21T09:13:36.954Z,74053.47
2017-10-21T09:14:36.985Z,74055.65
2017-10-21T09:15:37.018Z,74056.71
2017-10-21T09:16:37.049Z,74066.40
2017-10-21T09:17:37.081Z,74064.98
2017-10-21T09:18:40.118Z,74045.86
2017-10-21T09:19:37.146Z,74051.94
2017-10-21T09:20:37.176Z,74059.62
2017-10-21T09:21:37.210Z,74048.30
2017-10-21T09:22:37.242Z,74054.45
2017-10-21T09:23:40.386Z,74056.89
2017-10-21T09:24:37.305Z,74066.46
2017-10-21T09:25:37.338Z,74053.02
2017-10-21T09:26:37.372Z,74053.45
2017-10-21T09:27:37.405Z,74054.67
2017-10-21T09:28:44.148Z,74050.73
2017-10-21T09:29:37.469Z,74043.87
2017-10-21T09:30:37.503Z,74047.41
2017-10-21T09:31:44.169Z,74050.02
2017-10-21T09:32:37.567Z,74047.93
2017-10-21T09:33:37.602Z,74048.41
2017-10-21T09:34:44.146Z,74052.49
2017-10-21T09:35:37.667Z,74045.78
2017-10-21T09:36:37.700Z,74050.55
2017-10-21T09:37:37.735Z,74050.93
2017-10-21T09:38:43.125Z,74054.55
2017-10-21T09:39:37.802Z,74059.79
2017-10-21T09:40:37.829Z,74060.26
2017-10-21T09:41:37.863Z,74050.96
2017-10-21T09:42:43.155Z,74057.05
2017-10-21T09:43:37.929Z,74055.68
2017-10-21T09:44:37.960Z,74053.42
2017-10-21T09:45:37.994Z,74054.69
2017-10-21T09:46:38.027Z,74053.76
2017-10-21T09:47:43.168Z,74050.28
2017-10-21T09:48:38.096Z,74055.47
2017-10-21T09:49:44.136Z,74053.94
2017-10-21T09:50:38.159Z,74067.33
2017-10-21T09:51:38.193Z,74047.49
2017-10-21T09:52:38.226Z,74063.39
2017-10-21T09:53:38.259Z,74056.54
2017-10-21T09:54:44.153Z,74052.99
2017-10-21T09:55:38.326Z,74062.16
2017-10-21T09:56:44.168Z,74055.22
2017-10-21T09:57:38.392Z,74053.59
2017-10-21T09:58:44.145Z,74061.41
2017-10-21T09:59:38.460Z,74057.80
2017-10-21T10:00:38.594Z,74056.76
2017-10-21T10:01:38.527Z,74058.19
2017-10-21T10:02:38.562Z,74067.88
2017-10-21T10:03:38.595Z,74060.48
2017-10-21T10:04:38.627Z,74069.88
2017-10-21T10:05:38.663Z,74066.59
2017-10-21T10:06:44.155Z,74074.56
2017-10-21T10:07:38.730Z,74063.35
2017-10-21T10:08:38.763Z,74071.41
2017-10-21T10:09:38.796Z,74062.77
2017-10-21T10:10:38.831Z,74070.29
2017-10-21T10:11:44.175Z,74067.27
2017-10-21T10:12:38.899Z,74068.37
2017-10-21T10:13:44.191Z,74060.63
2017-10-21T10:14:38.966Z,74074.00
2017-10-21T10:15:44.165Z,74059.36
2017-10-21T10:16:39.034Z,74064.09
2017-10-21T10:17:39.068Z,74054.62
2017-10-21T10:18:39.103Z,74055.03
2017-10-21T10:19:39.137Z,74061.20
2017-10-21T10:20:44.179Z,74062.56
2017-10-21T10:21:39.204Z,74062.52
2017-10-21T10:22:45.200Z,74052.04
2017-10-21T10:23:39.272Z,74058.15
2017-10-21T10:24:39.306Z,74050.62
2017-10-21T10:25:45.200Z,74057.76
2017-10-21T10:26:39.374Z,74050.18
2017-10-21T10:27:39.407Z,74055.05
2017-10-21T10:28:39.441Z,74051.08
2017-10-21T10:29:45.186Z,74044.13
2017-10-21T10:30:39.510Z,74055.31
2017-10-21T10:31:39.545Z,74046.16
2017-10-21T10:32:39.580Z,74042.95
2017-10-21T10:33:39.611Z,74044.59
2017-10-21T10:34:45.207Z,74050.89
2017-10-21T10:35:39.682Z,74048.63
2017-10-21T10:36:39.720Z,74038.02
2017-10-21T10:37:39.750Z,74054.61
2017-10-21T10:38:39.789Z,74055.60
2017-10-21T10:39:45.179Z,74056.22
2017-10-21T10:40:39.854Z,74053.36
2017-10-21T10:41:39.888Z,74056.23
2017-10-21T10:42:39.923Z,74031.70
2017-10-21T10:43:39.957Z,74049.55
2017-10-21T10:44:45.200Z,74034.91
2017-10-21T10:45:40.025Z,74045.96
2017-10-21T10:46:40.060Z,74047.23
2017-10-21T10:47:40.095Z,74045.99
2017-10-21T10:48:40.128Z,74044.66
2017-10-21T10:49:45.220Z,74037.52
2017-10-21T10:50:40.196Z,74044.70
2017-10-21T10:51:40.231Z,74036.31
2017-10-21T10:52:40.264Z,74043.36
2017-10-21T10:53:40.299Z,74036.59
2017-10-21T10:54:46.231Z,74042.87
2017-10-21T10:55:46.228Z,74034.21
2017-10-21T10:56:40.402Z,74032.05
2017-10-21T10:57:40.436Z,74029.73
2017-10-21T10:58:40.479Z,74039.55
2017-10-21T10:59:40.504Z,74019.92
2017-10-21T11:00:46.199Z,74031.16
2017-10-21T11:01:40.571Z,74038.13
2017-10-21T11:02:40.607Z,74023.60
2017-10-21T11:03:46.201Z,74028.62
2017-10-21T11:04:40.675Z,74025.71
2017-10-21T11:05:40.710Z,74036.27
2017-10-21T11:06:40.744Z,74035.63
2017-10-21T11:07:40.780Z,74026.28
2017-10-21T11:08:46.224Z,74031.41
2017-10-21T11:09:40.847Z,74034.07
2017-10-21T11:10:40.883Z,74036.83
2017-10-21T11:11:40.918Z,74038.41
2017-10-21T11:12:46.214Z,74021.29
2017-10-21T11:13:40.990Z,74029.08
2017-10-21T11:14:46.234Z,74024.96
2017-10-21T11:15:41.060Z,74031.50
2017-10-21T11:16:41.096Z,74028.82
2017-10-21T11:17:46.240Z,74010.13
2017-10-21T11:18:41.166Z,74023.13
2017-10-21T11:19:41.203Z,74025.16
2017-10-21T11:20:41.235Z,74020.80
2017-10-21T11:21:41.270Z,74028.62
2017-10-21T11:22:47.216Z,74042.02
2017-10-21T11:23:47.256Z,74035.61
2017-10-21T11:24:41.375Z,74034.43
2017-10-21T11:25:41.410Z,74012.62
2017-10-21T11:26:41.446Z,74017.77
2017-10-21T11:27:41.480Z,74025.39
2017-10-21T11:28:47.223Z,74027.75
2017-10-21T11:29:47.259Z,74030.65
2017-10-21T11:30:47.243Z,74029.59
2017-10-21T11:31:41.617Z,74033.31
2017-10-21T11:32:41.651Z,74024.86
2017-10-21T11:33:41.685Z,74015.65
2017-10-21T11:34:41.720Z,74009.08
2017-10-21T11:35:47.267Z,74001.66
2017-10-21T11:36:41.785Z,74009.79
2017-10-21T11:37:41.818Z,74018.95
2017-10-21T11:38:47.261Z,74016.49
2017-10-21T11:39:41.885Z,74020.72
2017-10-21T11:40:47.276Z,74018.69
2017-10-21T11:41:41.951Z,74028.53
2017-10-21T11:42:47.243Z,74023.28
2017-10-21T11:43:42.021Z,74022.73
2017-10-21T11:44:42.048Z,74003.48
2017-10-21T11:45:42.079Z,74021.77